Briefing drone pour Chagny

Rechercher une autre localisation

Conditions de vol :


Nous sommes le : Lundi 04 juillet 2022
Il est 06:46 UTC (08:46 LT)

Lever de soleil : 03:26 UTC (05:26 LT)
Coucher de soleil : 20:04 UTC (22:04 LT)

Météo

L'essentiel des conditions de vol

VIGILANCE MÉTÉO FRANCE - Saône-et-Loire (71)
Vigilance Jaune : Orages
CARTE TEMSI
CARTES DES FRONTS
METAR de LFLH
LFLH 040630Z AUTO VRB02KT CAVOK 19/14 Q1020

Date d'émission: 04/07/2022
Heure d'émission: 06:30 UTC
Vent: Variable 2 KT (4 km/h)
Visibilité horizontale: > 10 km
Plafond : Plafond et visibilité OK (CAVOK)
Température: 19 °C
Point de rosée: 14 °C
Humidité: 73%
Pression (QNH): 1020 hPa
Prévision 24h pour Chalon-sur-saone (10 km)
Vent : 341° pour 1 KT (5 km/h)
Temperature Maxi: 13 °C
Temperature Min: 13 °C
Humidité : 82%
Condition : Ciel dégagé



Warning: count(): Parameter must be an array or an object that implements Countable in /homepages/6/d509196549/htdocs/droneoxygene/briefing.php on line 743
WEBCAM POUR CHAGNY

Réglementation

Voler en sécurité

CARTES AERONAUTIQUE 1/500.000
CARTES VAC (LFLH)
SUP AIP




Chargement des AIP...
NOTAM (CHAGNY + Terrain à proximité / FIR )




Chargement des NOTAMS...
CONTACT PREFECTURE 71


Avertissement : Les données mises à disposition sont indicatives. Oxygène Drone ne pourra être tenu responsable de dégâts causés aux biens et aux personnes.